sensor_id;sensor_type;location;lat;lon;timestamp;temperature;humidity
53310;DHT22;39197;53.200;5.792;2022-12-13T00:01:46;-2.50;99.90
53310;DHT22;39197;53.200;5.792;2022-12-13T00:04:13;-2.50;99.90
53310;DHT22;39197;53.200;5.792;2022-12-13T00:06:38;-2.50;99.90
53310;DHT22;39197;53.200;5.792;2022-12-13T00:09:05;-2.50;99.90
53310;DHT22;39197;53.200;5.792;2022-12-13T00:11:31;-2.50;99.90
53310;DHT22;39197;53.200;5.792;2022-12-13T00:13:57;-2.50;99.90
53310;DHT22;39197;53.200;5.792;2022-12-13T00:16:25;-2.50;99.90
53310;DHT22;39197;53.200;5.792;2022-12-13T00:18:58;-2.50;99.90
53310;DHT22;39197;53.200;5.792;2022-12-13T00:21:26;-2.50;99.90
53310;DHT22;39197;53.200;5.792;2022-12-13T00:23:52;-2.50;99.90
53310;DHT22;39197;53.200;5.792;2022-12-13T00:26:21;-2.50;99.90
53310;DHT22;39197;53.200;5.792;2022-12-13T00:28:48;-2.50;99.90
53310;DHT22;39197;53.200;5.792;2022-12-13T00:31:16;-2.50;99.90
53310;DHT22;39197;53.200;5.792;2022-12-13T00:33:42;-2.50;99.90
53310;DHT22;39197;53.200;5.792;2022-12-13T00:36:08;-2.50;99.90
53310;DHT22;39197;53.200;5.792;2022-12-13T00:38:34;-2.50;99.90
53310;DHT22;39197;53.200;5.792;2022-12-13T00:41:13;-2.50;99.90
53310;DHT22;39197;53.200;5.792;2022-12-13T00:43:39;-2.50;99.90
53310;DHT22;39197;53.200;5.792;2022-12-13T00:46:07;-2.60;99.90
53310;DHT22;39197;53.200;5.792;2022-12-13T00:48:36;-2.60;99.90
53310;DHT22;39197;53.200;5.792;2022-12-13T00:51:06;-2.60;99.90
53310;DHT22;39197;53.200;5.792;2022-12-13T00:53:31;-2.70;99.90
53310;DHT22;39197;53.200;5.792;2022-12-13T00:55:57;-2.70;99.90
53310;DHT22;39197;53.200;5.792;2022-12-13T00:58:23;-2.70;99.90
53310;DHT22;39197;53.200;5.792;2022-12-13T01:00:48;-2.70;99.90
53310;DHT22;39197;53.200;5.792;2022-12-13T01:03:14;-2.80;99.90
53310;DHT22;39197;53.200;5.792;2022-12-13T01:05:46;-2.80;99.90
53310;DHT22;39197;53.200;5.792;2022-12-13T01:08:13;-2.80;99.90
53310;DHT22;39197;53.200;5.792;2022-12-13T01:10:46;-2.80;99.90
53310;DHT22;39197;53.200;5.792;2022-12-13T01:13:12;-2.80;99.90
53310;DHT22;39197;53.200;5.792;2022-12-13T01:15:42;-2.80;99.90
53310;DHT22;39197;53.200;5.792;2022-12-13T01:18:09;-2.70;99.90
53310;DHT22;39197;53.200;5.792;2022-12-13T01:20:35;-2.80;99.90
53310;DHT22;39197;53.200;5.792;2022-12-13T01:23:01;-2.80;99.90
53310;DHT22;39197;53.200;5.792;2022-12-13T01:25:26;-2.80;99.90
53310;DHT22;39197;53.200;5.792;2022-12-13T01:27:52;-2.80;99.90
53310;DHT22;39197;53.200;5.792;2022-12-13T01:30:17;-2.70;99.90
53310;DHT22;39197;53.200;5.792;2022-12-13T01:32:43;-2.70;99.90
53310;DHT22;39197;53.200;5.792;2022-12-13T01:35:09;-2.60;99.90
53310;DHT22;39197;53.200;5.792;2022-12-13T01:37:34;-2.60;99.90
53310;DHT22;39197;53.200;5.792;2022-12-13T01:40:04;-2.60;99.90
53310;DHT22;39197;53.200;5.792;2022-12-13T01:42:30;-2.60;99.90
53310;DHT22;39197;53.200;5.792;2022-12-13T01:49:54;-2.60;99.90
53310;DHT22;39197;53.200;5.792;2022-12-13T01:52:21;-2.60;99.90
53310;DHT22;39197;53.200;5.792;2022-12-13T01:54:50;-2.60;99.90
53310;DHT22;39197;53.200;5.792;2022-12-13T01:57:18;-2.60;99.90
53310;DHT22;39197;53.200;5.792;2022-12-13T01:59:46;-2.60;99.90
53310;DHT22;39197;53.200;5.792;2022-12-13T02:02:13;-2.60;99.90
53310;DHT22;39197;53.200;5.792;2022-12-13T02:07:28;-2.60;99.90
53310;DHT22;39197;53.200;5.792;2022-12-13T02:09:58;-2.50;99.90
53310;DHT22;39197;53.200;5.792;2022-12-13T02:12:26;-2.50;99.90
53310;DHT22;39197;53.200;5.792;2022-12-13T02:14:52;-2.50;99.90
53310;DHT22;39197;53.200;5.792;2022-12-13T02:20:20;-2.50;99.90
53310;DHT22;39197;53.200;5.792;2022-12-13T02:23:17;-2.60;99.90
53310;DHT22;39197;53.200;5.792;2022-12-13T02:26:22;-2.60;99.90
53310;DHT22;39197;53.200;5.792;2022-12-13T02:32:01;-2.50;99.90
53310;DHT22;39197;53.200;5.792;2022-12-13T02:34:38;-2.50;99.90
53310;DHT22;39197;53.200;5.792;2022-12-13T02:39:59;-2.40;99.90
53310;DHT22;39197;53.200;5.792;2022-12-13T02:42:35;-2.40;99.90
53310;DHT22;39197;53.200;5.792;2022-12-13T02:47:31;-2.40;99.90
53310;DHT22;39197;53.200;5.792;2022-12-13T02:50:01;-2.40;99.90
53310;DHT22;39197;53.200;5.792;2022-12-13T02:52:30;-2.30;99.90
53310;DHT22;39197;53.200;5.792;2022-12-13T02:54:57;-2.30;99.90
53310;DHT22;39197;53.200;5.792;2022-12-13T02:59:58;-2.20;99.90
53310;DHT22;39197;53.200;5.792;2022-12-13T03:13:25;-2.10;99.90
53310;DHT22;39197;53.200;5.792;2022-12-13T03:16:10;-2.10;99.90
53310;DHT22;39197;53.200;5.792;2022-12-13T03:18:37;-2.10;99.90
53310;DHT22;39197;53.200;5.792;2022-12-13T03:21:05;-2.00;99.90
53310;DHT22;39197;53.200;5.792;2022-12-13T03:23:31;-2.00;99.90
53310;DHT22;39197;53.200;5.792;2022-12-13T03:26:09;-1.90;99.90
53310;DHT22;39197;53.200;5.792;2022-12-13T03:28:35;-2.00;99.90
53310;DHT22;39197;53.200;5.792;2022-12-13T03:31:01;-2.10;99.90
53310;DHT22;39197;53.200;5.792;2022-12-13T03:33:27;-2.00;99.90
53310;DHT22;39197;53.200;5.792;2022-12-13T03:35:52;-2.10;99.90
53310;DHT22;39197;53.200;5.792;2022-12-13T03:38:18;-2.10;99.90
53310;DHT22;39197;53.200;5.792;2022-12-13T03:40:44;-2.10;99.90
53310;DHT22;39197;53.200;5.792;2022-12-13T03:43:10;-2.10;99.90
53310;DHT22;39197;53.200;5.792;2022-12-13T03:45:36;-2.10;99.90
53310;DHT22;39197;53.200;5.792;2022-12-13T03:48:02;-2.10;99.90
53310;DHT22;39197;53.200;5.792;2022-12-13T03:50:27;-2.10;99.90
53310;DHT22;39197;53.200;5.792;2022-12-13T03:53:00;-2.10;99.90
53310;DHT22;39197;53.200;5.792;2022-12-13T03:55:26;-2.10;99.90
53310;DHT22;39197;53.200;5.792;2022-12-13T03:57:52;-2.10;99.90
53310;DHT22;39197;53.200;5.792;2022-12-13T04:00:18;-2.10;99.90
53310;DHT22;39197;53.200;5.792;2022-12-13T04:02:44;-2.10;99.90
53310;DHT22;39197;53.200;5.792;2022-12-13T04:05:10;-2.10;99.90
53310;DHT22;39197;53.200;5.792;2022-12-13T04:07:35;-2.10;99.90
53310;DHT22;39197;53.200;5.792;2022-12-13T04:10:02;-2.10;99.90
53310;DHT22;39197;53.200;5.792;2022-12-13T04:12:28;-2.00;99.90
53310;DHT22;39197;53.200;5.792;2022-12-13T04:15:12;-2.00;99.90
53310;DHT22;39197;53.200;5.792;2022-12-13T04:17:38;-2.00;99.90
53310;DHT22;39197;53.200;5.792;2022-12-13T04:20:04;-2.00;99.90
53310;DHT22;39197;53.200;5.792;2022-12-13T04:22:30;-2.00;99.90
53310;DHT22;39197;53.200;5.792;2022-12-13T04:24:55;-2.00;99.90
53310;DHT22;39197;53.200;5.792;2022-12-13T04:27:21;-2.00;99.90
53310;DHT22;39197;53.200;5.792;2022-12-13T04:29:46;-1.80;99.90
53310;DHT22;39197;53.200;5.792;2022-12-13T04:32:12;-1.80;99.90
53310;DHT22;39197;53.200;5.792;2022-12-13T04:34:38;-1.80;99.90
53310;DHT22;39197;53.200;5.792;2022-12-13T04:37:04;-1.80;99.90
53310;DHT22;39197;53.200;5.792;2022-12-13T04:39:29;-1.80;99.90
53310;DHT22;39197;53.200;5.792;2022-12-13T04:41:55;-1.80;99.90
53310;DHT22;39197;53.200;5.792;2022-12-13T04:44:21;-1.70;99.90
53310;DHT22;39197;53.200;5.792;2022-12-13T04:46:46;-1.70;99.90
53310;DHT22;39197;53.200;5.792;2022-12-13T04:49:12;-1.70;99.90
53310;DHT22;39197;53.200;5.792;2022-12-13T04:51:37;-1.70;99.90
53310;DHT22;39197;53.200;5.792;2022-12-13T04:54:03;-1.70;99.90
53310;DHT22;39197;53.200;5.792;2022-12-13T04:56:29;-1.70;99.90
53310;DHT22;39197;53.200;5.792;2022-12-13T04:58:54;-1.70;99.90
53310;DHT22;39197;53.200;5.792;2022-12-13T05:01:20;-1.80;99.90
53310;DHT22;39197;53.200;5.792;2022-12-13T05:03:45;-1.80;99.90
53310;DHT22;39197;53.200;5.792;2022-12-13T05:06:12;-1.90;99.90
53310;DHT22;39197;53.200;5.792;2022-12-13T05:08:38;-1.90;99.90
53310;DHT22;39197;53.200;5.792;2022-12-13T05:11:05;-1.90;99.90
53310;DHT22;39197;53.200;5.792;2022-12-13T05:13:31;-2.00;99.90
53310;DHT22;39197;53.200;5.792;2022-12-13T05:15:59;-2.00;99.90
53310;DHT22;39197;53.200;5.792;2022-12-13T05:18:26;-2.00;99.90
53310;DHT22;39197;53.200;5.792;2022-12-13T05:20:52;-2.00;99.90
53310;DHT22;39197;53.200;5.792;2022-12-13T05:23:22;-2.00;99.90
53310;DHT22;39197;53.200;5.792;2022-12-13T05:25:51;-2.00;99.90
53310;DHT22;39197;53.200;5.792;2022-12-13T05:28:17;-2.00;99.90
53310;DHT22;39197;53.200;5.792;2022-12-13T05:30:43;-1.90;99.90
53310;DHT22;39197;53.200;5.792;2022-12-13T05:33:09;-1.90;99.90
53310;DHT22;39197;53.200;5.792;2022-12-13T05:35:35;-1.90;99.90
53310;DHT22;39197;53.200;5.792;2022-12-13T05:38:01;-1.90;99.90
53310;DHT22;39197;53.200;5.792;2022-12-13T05:40:29;-1.90;99.90
53310;DHT22;39197;53.200;5.792;2022-12-13T05:42:55;-1.90;99.90
53310;DHT22;39197;53.200;5.792;2022-12-13T05:45:21;-1.90;99.90
53310;DHT22;39197;53.200;5.792;2022-12-13T05:47:47;-1.90;99.90
53310;DHT22;39197;53.200;5.792;2022-12-13T05:50:14;-1.90;99.90
53310;DHT22;39197;53.200;5.792;2022-12-13T05:52:42;-1.90;99.90
53310;DHT22;39197;53.200;5.792;2022-12-13T05:55:08;-1.90;99.90
53310;DHT22;39197;53.200;5.792;2022-12-13T05:57:34;-1.90;99.90
53310;DHT22;39197;53.200;5.792;2022-12-13T06:00:00;-1.90;99.90
53310;DHT22;39197;53.200;5.792;2022-12-13T06:02:25;-1.90;99.90
53310;DHT22;39197;53.200;5.792;2022-12-13T06:04:51;-1.90;99.90
53310;DHT22;39197;53.200;5.792;2022-12-13T06:07:17;-1.90;99.90
53310;DHT22;39197;53.200;5.792;2022-12-13T06:09:42;-2.00;99.90
53310;DHT22;39197;53.200;5.792;2022-12-13T06:12:08;-2.00;99.90
53310;DHT22;39197;53.200;5.792;2022-12-13T06:14:34;-2.00;99.90
53310;DHT22;39197;53.200;5.792;2022-12-13T06:17:00;-2.00;99.90
53310;DHT22;39197;53.200;5.792;2022-12-13T06:19:26;-2.00;99.90
53310;DHT22;39197;53.200;5.792;2022-12-13T06:21:53;-2.00;99.90
53310;DHT22;39197;53.200;5.792;2022-12-13T06:24:20;-2.00;99.90
53310;DHT22;39197;53.200;5.792;2022-12-13T06:26:48;-2.00;99.90
53310;DHT22;39197;53.200;5.792;2022-12-13T06:29:14;-2.00;99.90
53310;DHT22;39197;53.200;5.792;2022-12-13T06:31:40;-1.90;99.90
53310;DHT22;39197;53.200;5.792;2022-12-13T06:34:06;-1.90;99.90
53310;DHT22;39197;53.200;5.792;2022-12-13T06:36:31;-1.90;99.90
53310;DHT22;39197;53.200;5.792;2022-12-13T06:39:02;-1.90;99.90
53310;DHT22;39197;53.200;5.792;2022-12-13T06:41:27;-2.00;99.90
53310;DHT22;39197;53.200;5.792;2022-12-13T06:43:53;-1.90;99.90
53310;DHT22;39197;53.200;5.792;2022-12-13T06:46:19;-1.90;99.90
53310;DHT22;39197;53.200;5.792;2022-12-13T06:48:45;-1.80;99.90
53310;DHT22;39197;53.200;5.792;2022-12-13T06:51:11;-1.80;99.90
53310;DHT22;39197;53.200;5.792;2022-12-13T06:53:38;-1.80;99.90
53310;DHT22;39197;53.200;5.792;2022-12-13T06:56:09;-1.90;99.90
53310;DHT22;39197;53.200;5.792;2022-12-13T06:58:35;-1.90;99.90
53310;DHT22;39197;53.200;5.792;2022-12-13T07:01:09;-2.00;99.90
53310;DHT22;39197;53.200;5.792;2022-12-13T07:03:35;-2.00;99.90
53310;DHT22;39197;53.200;5.792;2022-12-13T07:06:12;-2.10;99.90
53310;DHT22;39197;53.200;5.792;2022-12-13T07:08:42;-2.10;99.90
53310;DHT22;39197;53.200;5.792;2022-12-13T07:11:13;-2.20;99.90
53310;DHT22;39197;53.200;5.792;2022-12-13T07:13:40;-2.20;99.90
53310;DHT22;39197;53.200;5.792;2022-12-13T07:16:06;-2.30;99.90
53310;DHT22;39197;53.200;5.792;2022-12-13T07:18:32;-2.30;99.90
53310;DHT22;39197;53.200;5.792;2022-12-13T07:20:58;-2.40;99.90
53310;DHT22;39197;53.200;5.792;2022-12-13T07:23:23;-2.40;99.90
53310;DHT22;39197;53.200;5.792;2022-12-13T07:25:52;-2.40;99.90
53310;DHT22;39197;53.200;5.792;2022-12-13T07:28:19;-2.50;99.90
53310;DHT22;39197;53.200;5.792;2022-12-13T07:30:45;-2.50;99.90
53310;DHT22;39197;53.200;5.792;2022-12-13T07:33:11;-2.50;99.90
53310;DHT22;39197;53.200;5.792;2022-12-13T07:35:37;-2.50;99.90
53310;DHT22;39197;53.200;5.792;2022-12-13T07:38:03;-2.40;99.90
53310;DHT22;39197;53.200;5.792;2022-12-13T07:40:29;-2.40;99.90
53310;DHT22;39197;53.200;5.792;2022-12-13T07:42:55;-2.40;99.90
53310;DHT22;39197;53.200;5.792;2022-12-13T07:45:22;-2.50;99.90
53310;DHT22;39197;53.200;5.792;2022-12-13T07:47:48;-2.50;99.90
53310;DHT22;39197;53.200;5.792;2022-12-13T07:50:14;-2.50;99.90
53310;DHT22;39197;53.200;5.792;2022-12-13T07:52:40;-2.50;99.90
53310;DHT22;39197;53.200;5.792;2022-12-13T07:55:06;-2.50;99.90
53310;DHT22;39197;53.200;5.792;2022-12-13T07:57:32;-2.50;99.90
53310;DHT22;39197;53.200;5.792;2022-12-13T07:59:58;-2.50;99.90
53310;DHT22;39197;53.200;5.792;2022-12-13T08:02:24;-2.50;99.90
53310;DHT22;39197;53.200;5.792;2022-12-13T08:04:50;-2.50;99.90
53310;DHT22;39197;53.200;5.792;2022-12-13T08:07:15;-2.50;99.90
53310;DHT22;39197;53.200;5.792;2022-12-13T08:09:41;-2.40;99.90
53310;DHT22;39197;53.200;5.792;2022-12-13T08:12:07;-2.40;99.90
53310;DHT22;39197;53.200;5.792;2022-12-13T08:14:32;-2.40;99.90
53310;DHT22;39197;53.200;5.792;2022-12-13T08:16:58;-2.30;99.90
53310;DHT22;39197;53.200;5.792;2022-12-13T08:19:24;-2.30;99.90
53310;DHT22;39197;53.200;5.792;2022-12-13T08:21:49;-2.30;99.90
53310;DHT22;39197;53.200;5.792;2022-12-13T08:24:20;-2.40;99.90
53310;DHT22;39197;53.200;5.792;2022-12-13T08:26:45;-2.40;99.90
53310;DHT22;39197;53.200;5.792;2022-12-13T08:29:12;-2.40;99.90
53310;DHT22;39197;53.200;5.792;2022-12-13T08:31:38;-2.40;99.90
53310;DHT22;39197;53.200;5.792;2022-12-13T08:34:04;-2.40;99.90
53310;DHT22;39197;53.200;5.792;2022-12-13T08:36:29;-2.30;99.90
53310;DHT22;39197;53.200;5.792;2022-12-13T08:38:55;-2.30;99.90
53310;DHT22;39197;53.200;5.792;2022-12-13T08:41:21;-2.30;99.90
53310;DHT22;39197;53.200;5.792;2022-12-13T08:43:47;-2.20;99.90
53310;DHT22;39197;53.200;5.792;2022-12-13T08:46:13;-2.20;99.90
53310;DHT22;39197;53.200;5.792;2022-12-13T08:48:39;-2.10;99.90
53310;DHT22;39197;53.200;5.792;2022-12-13T08:51:09;-2.10;99.90
53310;DHT22;39197;53.200;5.792;2022-12-13T08:53:39;-2.00;99.90
53310;DHT22;39197;53.200;5.792;2022-12-13T08:56:08;-2.00;99.90
53310;DHT22;39197;53.200;5.792;2022-12-13T08:58:35;-1.90;99.90
53310;DHT22;39197;53.200;5.792;2022-12-13T09:01:05;-1.90;99.90
53310;DHT22;39197;53.200;5.792;2022-12-13T09:03:31;-1.80;99.90
53310;DHT22;39197;53.200;5.792;2022-12-13T09:05:57;-1.80;99.90
53310;DHT22;39197;53.200;5.792;2022-12-13T09:08:29;-1.80;99.90
53310;DHT22;39197;53.200;5.792;2022-12-13T09:10:59;-1.70;99.90
53310;DHT22;39197;53.200;5.792;2022-12-13T09:13:26;-1.70;99.90
53310;DHT22;39197;53.200;5.792;2022-12-13T09:15:52;-1.60;99.90
53310;DHT22;39197;53.200;5.792;2022-12-13T09:18:18;-1.50;99.90
53310;DHT22;39197;53.200;5.792;2022-12-13T09:20:43;-1.50;99.90
53310;DHT22;39197;53.200;5.792;2022-12-13T09:23:09;-1.30;99.90
53310;DHT22;39197;53.200;5.792;2022-12-13T09:25:35;-1.20;99.90
53310;DHT22;39197;53.200;5.792;2022-12-13T09:28:00;-1.10;99.90
53310;DHT22;39197;53.200;5.792;2022-12-13T09:30:26;-1.10;99.90
53310;DHT22;39197;53.200;5.792;2022-12-13T09:32:52;-1.00;99.90
53310;DHT22;39197;53.200;5.792;2022-12-13T09:35:18;-1.00;99.90
53310;DHT22;39197;53.200;5.792;2022-12-13T09:37:44;-1.00;99.90
53310;DHT22;39197;53.200;5.792;2022-12-13T09:40:19;-0.90;99.90
53310;DHT22;39197;53.200;5.792;2022-12-13T09:42:48;-0.60;99.90
53310;DHT22;39197;53.200;5.792;2022-12-13T09:45:15;0.00;99.90
53310;DHT22;39197;53.200;5.792;2022-12-13T09:47:43;0.60;99.90
53310;DHT22;39197;53.200;5.792;2022-12-13T09:50:17;1.10;99.90
53310;DHT22;39197;53.200;5.792;2022-12-13T09:52:44;1.50;99.90
53310;DHT22;39197;53.200;5.792;2022-12-13T09:57:46;2.10;99.90
53310;DHT22;39197;53.200;5.792;2022-12-13T10:00:18;2.10;99.90
53310;DHT22;39197;53.200;5.792;2022-12-13T10:02:49;2.20;99.90
53310;DHT22;39197;53.200;5.792;2022-12-13T10:05:29;2.40;99.90
53310;DHT22;39197;53.200;5.792;2022-12-13T10:07:59;2.80;99.90
53310;DHT22;39197;53.200;5.792;2022-12-13T10:10:26;3.30;99.90
53310;DHT22;39197;53.200;5.792;2022-12-13T10:15:27;3.70;99.90
53310;DHT22;39197;53.200;5.792;2022-12-13T10:17:54;3.90;99.90
53310;DHT22;39197;53.200;5.792;2022-12-13T10:20:21;4.00;99.90
53310;DHT22;39197;53.200;5.792;2022-12-13T10:22:50;4.40;99.90
53310;DHT22;39197;53.200;5.792;2022-12-13T10:25:15;4.50;99.90
53310;DHT22;39197;53.200;5.792;2022-12-13T10:27:43;4.70;99.90
53310;DHT22;39197;53.200;5.792;2022-12-13T10:30:21;4.80;99.90
53310;DHT22;39197;53.200;5.792;2022-12-13T10:32:59;5.10;99.90
53310;DHT22;39197;53.200;5.792;2022-12-13T10:40:34;5.10;99.90
53310;DHT22;39197;53.200;5.792;2022-12-13T10:43:15;5.10;99.90
53310;DHT22;39197;53.200;5.792;2022-12-13T10:45:42;5.20;99.90
53310;DHT22;39197;53.200;5.792;2022-12-13T10:48:19;5.50;99.90
53310;DHT22;39197;53.200;5.792;2022-12-13T10:53:31;5.60;99.90
53310;DHT22;39197;53.200;5.792;2022-12-13T10:55:58;5.60;99.90
53310;DHT22;39197;53.200;5.792;2022-12-13T10:58:33;5.50;99.90
53310;DHT22;39197;53.200;5.792;2022-12-13T11:03:55;6.20;99.90
53310;DHT22;39197;53.200;5.792;2022-12-13T11:06:21;6.30;99.90
53310;DHT22;39197;53.200;5.792;2022-12-13T11:08:47;6.70;99.90
53310;DHT22;39197;53.200;5.792;2022-12-13T11:11:15;6.80;99.90
53310;DHT22;39197;53.200;5.792;2022-12-13T11:14:00;7.10;99.90
53310;DHT22;39197;53.200;5.792;2022-12-13T11:16:33;7.00;99.90
53310;DHT22;39197;53.200;5.792;2022-12-13T11:19:02;7.20;99.90
53310;DHT22;39197;53.200;5.792;2022-12-13T11:21:31;7.40;99.90
53310;DHT22;39197;53.200;5.792;2022-12-13T11:24:01;6.80;99.90
53310;DHT22;39197;53.200;5.792;2022-12-13T11:26:29;6.60;99.90
53310;DHT22;39197;53.200;5.792;2022-12-13T11:39:58;6.40;99.90
53310;DHT22;39197;53.200;5.792;2022-12-13T11:42:36;6.60;99.90
53310;DHT22;39197;53.200;5.792;2022-12-13T11:50:39;6.00;99.90
53310;DHT22;39197;53.200;5.792;2022-12-13T11:53:20;5.90;99.90
53310;DHT22;39197;53.200;5.792;2022-12-13T11:56:16;5.80;99.90
53310;DHT22;39197;53.200;5.792;2022-12-13T12:01:32;6.00;99.90
53310;DHT22;39197;53.200;5.792;2022-12-13T12:04:09;6.10;99.90
53310;DHT22;39197;53.200;5.792;2022-12-13T12:06:52;6.10;99.90
53310;DHT22;39197;53.200;5.792;2022-12-13T12:09:21;6.20;99.90
53310;DHT22;39197;53.200;5.792;2022-12-13T12:17:14;6.50;99.90
53310;DHT22;39197;53.200;5.792;2022-12-13T12:19:43;6.50;99.90
53310;DHT22;39197;53.200;5.792;2022-12-13T12:25:20;6.50;99.90
53310;DHT22;39197;53.200;5.792;2022-12-13T12:41:31;4.80;99.90
53310;DHT22;39197;53.200;5.792;2022-12-13T12:46:39;3.90;99.90
53310;DHT22;39197;53.200;5.792;2022-12-13T12:57:44;2.60;99.90
53310;DHT22;39197;53.200;5.792;2022-12-13T13:00:15;2.50;99.90
53310;DHT22;39197;53.200;5.792;2022-12-13T13:05:50;2.20;99.90
53310;DHT22;39197;53.200;5.792;2022-12-13T13:08:22;2.20;99.90
53310;DHT22;39197;53.200;5.792;2022-12-13T13:10:51;2.10;99.90
53310;DHT22;39197;53.200;5.792;2022-12-13T13:16:00;2.20;99.90
53310;DHT22;39197;53.200;5.792;2022-12-13T13:26:30;3.80;99.90
53310;DHT22;39197;53.200;5.792;2022-12-13T13:39:53;5.10;99.90
53310;DHT22;39197;53.200;5.792;2022-12-13T13:45:19;5.10;99.90
53310;DHT22;39197;53.200;5.792;2022-12-13T14:16:35;4.30;99.90
53310;DHT22;39197;53.200;5.792;2022-12-13T14:24:54;4.30;99.90
53310;DHT22;39197;53.200;5.792;2022-12-13T14:27:44;4.10;99.90
53310;DHT22;39197;53.200;5.792;2022-12-13T14:30:14;3.70;99.90
53310;DHT22;39197;53.200;5.792;2022-12-13T14:32:40;3.50;99.90
53310;DHT22;39197;53.200;5.792;2022-12-13T14:35:19;3.10;99.90
53310;DHT22;39197;53.200;5.792;2022-12-13T14:37:54;2.80;99.90
53310;DHT22;39197;53.200;5.792;2022-12-13T14:40:31;2.40;99.90
53310;DHT22;39197;53.200;5.792;2022-12-13T14:42:57;2.20;99.90
53310;DHT22;39197;53.200;5.792;2022-12-13T14:45:28;2.10;99.90
53310;DHT22;39197;53.200;5.792;2022-12-13T14:47:57;1.80;99.90
53310;DHT22;39197;53.200;5.792;2022-12-13T14:50:26;1.60;99.90
53310;DHT22;39197;53.200;5.792;2022-12-13T14:52:53;1.50;99.90
53310;DHT22;39197;53.200;5.792;2022-12-13T14:55:31;2.10;99.90
53310;DHT22;39197;53.200;5.792;2022-12-13T14:57:58;1.30;99.90
53310;DHT22;39197;53.200;5.792;2022-12-13T15:00:33;1.20;99.90
53310;DHT22;39197;53.200;5.792;2022-12-13T15:03:01;1.10;99.90
53310;DHT22;39197;53.200;5.792;2022-12-13T15:05:41;1.00;99.90
53310;DHT22;39197;53.200;5.792;2022-12-13T15:08:08;0.80;99.90
53310;DHT22;39197;53.200;5.792;2022-12-13T15:10:43;0.70;99.90
53310;DHT22;39197;53.200;5.792;2022-12-13T15:15:58;0.60;99.90
53310;DHT22;39197;53.200;5.792;2022-12-13T15:18:25;0.50;99.90
53310;DHT22;39197;53.200;5.792;2022-12-13T15:20:54;0.50;99.90
53310;DHT22;39197;53.200;5.792;2022-12-13T15:25:49;0.40;99.90
53310;DHT22;39197;53.200;5.792;2022-12-13T15:28:16;0.30;99.90
53310;DHT22;39197;53.200;5.792;2022-12-13T15:30:43;0.30;99.90
53310;DHT22;39197;53.200;5.792;2022-12-13T15:35:41;0.20;99.90
53310;DHT22;39197;53.200;5.792;2022-12-13T15:38:12;0.20;99.90
53310;DHT22;39197;53.200;5.792;2022-12-13T15:40:43;0.10;99.90
53310;DHT22;39197;53.200;5.792;2022-12-13T15:43:14;0.10;99.90
53310;DHT22;39197;53.200;5.792;2022-12-13T15:45:44;0.00;99.90
53310;DHT22;39197;53.200;5.792;2022-12-13T15:48:22;0.00;99.90
53310;DHT22;39197;53.200;5.792;2022-12-13T15:50:49;-0.10;99.90
53310;DHT22;39197;53.200;5.792;2022-12-13T15:53:26;-0.20;99.90
53310;DHT22;39197;53.200;5.792;2022-12-13T15:55:52;0.10;99.90
53310;DHT22;39197;53.200;5.792;2022-12-13T15:58:24;-0.30;99.90
53310;DHT22;39197;53.200;5.792;2022-12-13T16:00:50;-0.30;99.90
53310;DHT22;39197;53.200;5.792;2022-12-13T16:03:18;-0.30;99.90
53310;DHT22;39197;53.200;5.792;2022-12-13T16:05:50;-0.30;99.90
53310;DHT22;39197;53.200;5.792;2022-12-13T16:08:29;-0.40;99.90
53310;DHT22;39197;53.200;5.792;2022-12-13T16:10:56;-0.50;99.90
53310;DHT22;39197;53.200;5.792;2022-12-13T16:13:30;-0.50;99.90
53310;DHT22;39197;53.200;5.792;2022-12-13T16:15:58;-0.50;99.90
53310;DHT22;39197;53.200;5.792;2022-12-13T16:18:30;-0.60;99.90
53310;DHT22;39197;53.200;5.792;2022-12-13T16:20:56;-0.60;99.90
53310;DHT22;39197;53.200;5.792;2022-12-13T16:23:22;-0.60;99.90
53310;DHT22;39197;53.200;5.792;2022-12-13T16:25:48;-0.70;99.90
53310;DHT22;39197;53.200;5.792;2022-12-13T16:28:15;-0.70;99.90
53310;DHT22;39197;53.200;5.792;2022-12-13T16:33:23;0.10;99.90
53310;DHT22;39197;53.200;5.792;2022-12-13T16:35:49;-0.70;99.90
53310;DHT22;39197;53.200;5.792;2022-12-13T16:38:16;-0.80;99.90
53310;DHT22;39197;53.200;5.792;2022-12-13T16:40:43;-0.80;99.90
53310;DHT22;39197;53.200;5.792;2022-12-13T16:43:22;-0.80;99.90
53310;DHT22;39197;53.200;5.792;2022-12-13T16:45:50;-0.90;99.90
53310;DHT22;39197;53.200;5.792;2022-12-13T16:48:17;-0.80;99.90
53310;DHT22;39197;53.200;5.792;2022-12-13T16:50:45;-0.90;99.90
53310;DHT22;39197;53.200;5.792;2022-12-13T16:53:12;-0.90;99.90
53310;DHT22;39197;53.200;5.792;2022-12-13T16:55:37;-0.90;99.90
53310;DHT22;39197;53.200;5.792;2022-12-13T16:58:06;-0.90;99.90
53310;DHT22;39197;53.200;5.792;2022-12-13T17:00:32;-1.00;99.90
53310;DHT22;39197;53.200;5.792;2022-12-13T17:02:59;-1.00;99.90
53310;DHT22;39197;53.200;5.792;2022-12-13T17:05:26;-1.00;99.90
53310;DHT22;39197;53.200;5.792;2022-12-13T17:07:52;-1.10;99.90
53310;DHT22;39197;53.200;5.792;2022-12-13T17:10:18;-1.10;99.90
53310;DHT22;39197;53.200;5.792;2022-12-13T17:12:44;-1.10;99.90
53310;DHT22;39197;53.200;5.792;2022-12-13T17:15:11;-1.10;99.90
53310;DHT22;39197;53.200;5.792;2022-12-13T17:17:39;-1.10;99.90
53310;DHT22;39197;53.200;5.792;2022-12-13T17:20:06;-1.20;99.90
53310;DHT22;39197;53.200;5.792;2022-12-13T17:22:33;-1.20;99.90
53310;DHT22;39197;53.200;5.792;2022-12-13T17:24:59;-1.20;99.90
53310;DHT22;39197;53.200;5.792;2022-12-13T17:27:25;-1.20;99.90
53310;DHT22;39197;53.200;5.792;2022-12-13T17:29:50;-1.20;99.90
53310;DHT22;39197;53.200;5.792;2022-12-13T17:32:16;-1.20;99.90
53310;DHT22;39197;53.200;5.792;2022-12-13T17:34:41;-1.20;99.90
53310;DHT22;39197;53.200;5.792;2022-12-13T17:37:07;-1.20;99.90
53310;DHT22;39197;53.200;5.792;2022-12-13T17:39:33;-1.20;99.90
53310;DHT22;39197;53.200;5.792;2022-12-13T17:41:59;-1.20;99.90
53310;DHT22;39197;53.200;5.792;2022-12-13T17:44:25;-1.20;99.90
53310;DHT22;39197;53.200;5.792;2022-12-13T17:46:51;-1.40;99.90
53310;DHT22;39197;53.200;5.792;2022-12-13T17:49:17;-1.20;99.90
53310;DHT22;39197;53.200;5.792;2022-12-13T17:51:43;-1.20;99.90
53310;DHT22;39197;53.200;5.792;2022-12-13T17:54:08;-1.20;99.90
53310;DHT22;39197;53.200;5.792;2022-12-13T17:56:34;-1.30;99.90
53310;DHT22;39197;53.200;5.792;2022-12-13T17:59:00;-1.30;99.90
53310;DHT22;39197;53.200;5.792;2022-12-13T18:01:25;-2.10;99.90
53310;DHT22;39197;53.200;5.792;2022-12-13T18:03:53;-1.40;99.90
53310;DHT22;39197;53.200;5.792;2022-12-13T18:06:20;-1.40;99.90
53310;DHT22;39197;53.200;5.792;2022-12-13T18:08:46;-1.40;99.90
53310;DHT22;39197;53.200;5.792;2022-12-13T18:11:14;-1.40;99.90
53310;DHT22;39197;53.200;5.792;2022-12-13T18:13:40;-1.40;99.90
53310;DHT22;39197;53.200;5.792;2022-12-13T18:16:08;-1.40;99.90
53310;DHT22;39197;53.200;5.792;2022-12-13T18:18:34;-1.50;99.90
53310;DHT22;39197;53.200;5.792;2022-12-13T18:21:08;-1.50;99.90
53310;DHT22;39197;53.200;5.792;2022-12-13T18:23:34;-1.50;99.90
53310;DHT22;39197;53.200;5.792;2022-12-13T18:26:02;-1.60;99.90
53310;DHT22;39197;53.200;5.792;2022-12-13T18:28:28;-1.60;99.90
53310;DHT22;39197;53.200;5.792;2022-12-13T18:30:59;-1.70;99.90
53310;DHT22;39197;53.200;5.792;2022-12-13T18:33:26;-1.70;99.90
53310;DHT22;39197;53.200;5.792;2022-12-13T18:35:52;-1.70;99.90